createdAt,value
2018-07-30T00:00:06.647Z,20.70
2018-07-30T00:02:39.591Z,20.60
2018-07-30T00:05:08.005Z,20.50
2018-07-30T00:07:35.208Z,20.50
2018-07-30T00:10:02.407Z,20.60
2018-07-30T00:12:29.628Z,20.60
2018-07-30T00:14:56.819Z,20.70
2018-07-30T00:17:24.023Z,20.70
2018-07-30T00:19:51.238Z,20.70
2018-07-30T00:22:18.423Z,20.70
2018-07-30T00:24:45.615Z,20.70
2018-07-30T00:27:12.815Z,20.70
2018-07-30T00:29:40.023Z,20.60
2018-07-30T00:32:07.320Z,20.60
2018-07-30T00:34:34.600Z,20.60
2018-07-30T00:37:01.804Z,20.50
2018-07-30T00:39:29.005Z,20.50
2018-07-30T00:41:56.205Z,20.40
2018-07-30T00:44:23.411Z,20.50
2018-07-30T00:46:50.625Z,20.50
2018-07-30T00:49:17.818Z,20.50
2018-07-30T00:51:45.046Z,20.60
2018-07-30T00:54:12.248Z,20.60
2018-07-30T00:56:39.462Z,20.60
2018-07-30T00:59:06.658Z,20.60
2018-07-30T01:01:44.763Z,20.60
2018-07-30T01:04:11.984Z,20.70
2018-07-30T01:06:39.219Z,20.70
2018-07-30T01:09:07.024Z,20.70
2018-07-30T01:11:34.243Z,20.60
2018-07-30T01:14:01.452Z,20.60
2018-07-30T01:16:28.767Z,20.60
2018-07-30T01:18:55.970Z,20.50
2018-07-30T01:21:23.187Z,20.60
2018-07-30T01:23:50.403Z,20.50
2018-07-30T01:26:23.271Z,20.50
2018-07-30T01:28:50.623Z,20.40
2018-07-30T01:31:17.834Z,20.40
2018-07-30T01:33:45.036Z,20.40
2018-07-30T01:36:12.258Z,20.30
2018-07-30T01:41:06.669Z,20.30
2018-07-30T01:43:34.037Z,20.30
2018-07-30T01:46:01.821Z,20.30
2018-07-30T01:48:29.381Z,20.30
2018-07-30T01:50:56.626Z,20.30
2018-07-30T01:53:23.831Z,20.30
2018-07-30T01:58:18.261Z,20.30
2018-07-30T02:05:40.012Z,20.20
2018-07-30T02:08:07.228Z,20.20
2018-07-30T02:10:34.436Z,20.20
2018-07-30T02:13:01.643Z,20.20
2018-07-30T02:15:28.859Z,20.20
2018-07-30T02:17:56.062Z,20.20
2018-07-30T02:20:23.243Z,20.20
2018-07-30T02:22:50.435Z,20.20
2018-07-30T02:25:17.639Z,20.20
2018-07-30T02:27:44.874Z,20.10
2018-07-30T02:30:12.088Z,20.10
2018-07-30T02:35:07.237Z,20.10
2018-07-30T02:37:34.501Z,20.00
2018-07-30T02:40:01.700Z,20.00
2018-07-30T02:42:28.939Z,20.00
2018-07-30T02:44:56.276Z,19.90
2018-07-30T02:47:23.588Z,19.90
2018-07-30T02:49:50.779Z,19.90
2018-07-30T02:52:18.087Z,19.80
2018-07-30T02:54:45.275Z,19.80
2018-07-30T02:57:12.495Z,19.80
2018-07-30T02:59:39.726Z,19.70
2018-07-30T03:02:06.945Z,19.60
2018-07-30T03:04:34.191Z,19.60
2018-07-30T03:07:01.407Z,19.50
2018-07-30T03:09:28.670Z,19.50
2018-07-30T03:14:23.071Z,19.30
2018-07-30T03:16:50.274Z,19.30
2018-07-30T03:19:17.507Z,19.30
2018-07-30T03:21:44.683Z,19.20
2018-07-30T03:24:11.894Z,19.10
2018-07-30T03:26:39.087Z,19.20
2018-07-30T03:29:06.326Z,19.20
2018-07-30T03:34:00.871Z,19.20
2018-07-30T03:36:28.080Z,19.20
2018-07-30T03:38:55.303Z,19.20
2018-07-30T03:43:49.728Z,19.20
2018-07-30T03:46:16.954Z,19.20
2018-07-30T03:48:44.143Z,19.30
2018-07-30T03:51:11.359Z,19.30
2018-07-30T03:53:38.567Z,19.40
2018-07-30T03:56:06.218Z,19.40
2018-07-30T03:58:35.293Z,19.40
2018-07-30T04:01:02.564Z,19.30
2018-07-30T04:03:29.783Z,19.30
2018-07-30T04:08:24.199Z,19.40
2018-07-30T04:13:18.622Z,19.50
2018-07-30T04:15:45.822Z,19.60
2018-07-30T04:18:13.014Z,19.70
2018-07-30T04:20:40.199Z,19.80
2018-07-30T04:23:07.390Z,19.70
2018-07-30T04:25:34.707Z,19.70
2018-07-30T04:28:01.890Z,19.70
2018-07-30T04:30:29.089Z,19.60
2018-07-30T04:32:56.321Z,19.60
2018-07-30T04:35:23.603Z,19.60
2018-07-30T04:37:50.824Z,19.60
2018-07-30T04:40:18.035Z,19.60
2018-07-30T04:42:45.271Z,19.60
2018-07-30T04:45:12.491Z,19.60
2018-07-30T04:47:39.707Z,19.60
2018-07-30T04:50:06.939Z,19.60
2018-07-30T04:52:34.211Z,19.70
2018-07-30T04:55:01.403Z,19.70
2018-07-30T04:57:28.633Z,19.80
2018-07-30T04:59:55.847Z,19.80
2018-07-30T05:04:50.286Z,20.00
2018-07-30T05:07:17.475Z,20.00
2018-07-30T05:09:44.671Z,20.20
2018-07-30T05:12:11.860Z,20.30
2018-07-30T05:14:39.070Z,20.50
2018-07-30T05:17:06.583Z,20.50
2018-07-30T05:19:33.812Z,20.50
2018-07-30T05:22:01.012Z,20.50
2018-07-30T05:24:28.220Z,20.60
2018-07-30T05:26:55.406Z,20.60
2018-07-30T05:29:22.595Z,20.60
2018-07-30T05:31:49.811Z,20.70
2018-07-30T05:34:17.017Z,20.70
2018-07-30T05:36:44.221Z,20.70
2018-07-30T05:39:11.551Z,20.80
2018-07-30T05:41:39.235Z,20.90
2018-07-30T05:44:06.600Z,20.90
2018-07-30T05:46:33.796Z,21.00
2018-07-30T05:49:01.048Z,21.20
2018-07-30T05:51:28.236Z,21.30
2018-07-30T05:53:55.428Z,21.50
2018-07-30T05:56:22.639Z,21.60
2018-07-30T05:58:49.815Z,21.70
2018-07-30T06:01:17.025Z,21.90
2018-07-30T06:03:44.232Z,22.00
2018-07-30T06:06:11.445Z,22.10
2018-07-30T06:08:38.667Z,22.20
2018-07-30T06:11:05.888Z,22.30
2018-07-30T06:13:33.119Z,22.40
2018-07-30T06:16:00.312Z,22.50
2018-07-30T06:18:27.667Z,22.50
2018-07-30T06:20:54.892Z,22.60
2018-07-30T06:23:22.086Z,22.60
2018-07-30T06:25:49.283Z,22.70
2018-07-30T06:28:16.513Z,22.70
2018-07-30T06:30:43.734Z,22.70
2018-07-30T06:33:10.939Z,22.70
2018-07-30T06:35:38.131Z,22.80
2018-07-30T06:38:05.350Z,22.80
2018-07-30T06:40:32.543Z,22.80
2018-07-30T06:42:59.763Z,22.80
2018-07-30T06:45:26.954Z,22.90
2018-07-30T06:47:54.160Z,23.00
2018-07-30T06:50:21.345Z,23.00
2018-07-30T06:52:48.552Z,23.10
2018-07-30T06:55:15.735Z,23.20
2018-07-30T06:57:42.952Z,23.30
2018-07-30T07:00:10.576Z,23.50
2018-07-30T07:02:38.043Z,23.80
2018-07-30T07:05:06.029Z,24.10
2018-07-30T07:07:33.212Z,24.70
2018-07-30T07:10:00.480Z,26.20
2018-07-30T07:12:27.667Z,27.90
2018-07-30T07:14:54.855Z,29.50
2018-07-30T07:17:22.057Z,30.90
2018-07-30T07:19:49.239Z,32.00
2018-07-30T07:22:16.447Z,32.50
2018-07-30T07:24:43.644Z,32.60
2018-07-30T07:27:10.927Z,33.50
2018-07-30T07:29:38.080Z,33.90
2018-07-30T07:32:05.631Z,34.40
2018-07-30T07:37:00.148Z,34.70
2018-07-30T07:39:27.351Z,34.00
2018-07-30T07:41:54.551Z,34.30
2018-07-30T07:44:21.743Z,34.90
2018-07-30T07:46:48.943Z,35.10
2018-07-30T07:49:16.186Z,35.50
2018-07-30T07:51:43.401Z,36.00
2018-07-30T07:54:10.711Z,35.30
2018-07-30T07:56:37.922Z,34.60
2018-07-30T07:59:05.191Z,34.30
2018-07-30T08:01:32.428Z,34.00
2018-07-30T08:03:59.702Z,33.90
2018-07-30T08:08:54.109Z,35.30
2018-07-30T08:11:21.317Z,35.20
2018-07-30T08:13:48.524Z,35.90
2018-07-30T08:16:15.778Z,35.90
2018-07-30T08:18:42.949Z,36.30
2018-07-30T08:21:10.168Z,36.50
2018-07-30T08:23:37.375Z,36.10
2018-07-30T08:26:04.591Z,36.10
2018-07-30T08:28:31.788Z,36.30
2018-07-30T08:30:59.021Z,37.10
2018-07-30T08:33:26.231Z,37.30
2018-07-30T08:35:53.444Z,37.80
2018-07-30T08:38:20.658Z,37.30
2018-07-30T08:40:47.864Z,38.00
2018-07-30T08:43:15.141Z,38.10
2018-07-30T08:45:42.431Z,37.40
2018-07-30T08:48:09.976Z,37.40
2018-07-30T08:50:37.179Z,37.80
2018-07-30T08:53:04.412Z,38.20
2018-07-30T08:55:31.652Z,38.40
2018-07-30T08:57:58.867Z,39.00
2018-07-30T09:00:26.071Z,38.50
2018-07-30T09:02:53.321Z,39.20
2018-07-30T09:05:20.527Z,39.50
2018-07-30T09:07:47.731Z,39.00
2018-07-30T09:10:14.959Z,39.00
2018-07-30T09:12:42.261Z,39.20
2018-07-30T09:15:09.431Z,39.80
2018-07-30T09:17:36.639Z,39.10
2018-07-30T09:20:04.373Z,39.30
2018-07-30T09:22:31.567Z,39.30
2018-07-30T09:24:58.783Z,39.60
2018-07-30T09:27:25.984Z,39.80
2018-07-30T09:29:53.190Z,40.10
2018-07-30T09:32:20.428Z,39.00
2018-07-30T09:34:47.844Z,38.90
2018-07-30T09:37:15.079Z,39.40
2018-07-30T09:39:42.435Z,39.70
2018-07-30T09:42:09.524Z,39.70
2018-07-30T09:44:36.856Z,39.70
2018-07-30T09:47:04.021Z,39.30
2018-07-30T09:49:31.199Z,39.40
2018-07-30T09:51:58.426Z,39.20
2018-07-30T09:54:25.620Z,38.60
2018-07-30T09:56:52.842Z,38.10
2018-07-30T09:59:20.031Z,38.40
2018-07-30T10:01:47.219Z,38.80
2018-07-30T10:04:14.414Z,38.50
2018-07-30T10:06:41.606Z,39.20
2018-07-30T10:09:09.844Z,39.20
2018-07-30T10:11:37.486Z,39.60
2018-07-30T10:14:04.867Z,39.60
2018-07-30T10:16:32.062Z,39.40
2018-07-30T10:18:59.267Z,39.50
2018-07-30T10:21:26.460Z,39.90
2018-07-30T10:23:53.675Z,39.80
2018-07-30T10:26:20.895Z,39.90
2018-07-30T10:28:48.079Z,39.70
2018-07-30T10:31:15.294Z,40.00
2018-07-30T10:33:42.489Z,40.10
2018-07-30T10:36:09.698Z,40.20
2018-07-30T10:38:36.899Z,40.40
2018-07-30T10:41:04.092Z,40.70
2018-07-30T10:43:31.295Z,40.80
2018-07-30T10:45:58.490Z,40.80
2018-07-30T10:48:25.671Z,40.90
2018-07-30T10:50:53.643Z,39.40
2018-07-30T10:53:20.995Z,39.10
2018-07-30T10:55:48.200Z,38.80
2018-07-30T10:58:15.391Z,36.80
2018-07-30T11:00:42.663Z,35.10
2018-07-30T11:03:09.867Z,35.70
2018-07-30T11:05:37.088Z,36.60
2018-07-30T11:08:04.303Z,36.20
2018-07-30T11:12:58.706Z,36.40
2018-07-30T11:15:25.892Z,37.10
2018-07-30T11:17:53.088Z,38.20
2018-07-30T11:20:20.296Z,38.90
2018-07-30T11:22:47.487Z,39.20
2018-07-30T11:25:14.737Z,39.20
2018-07-30T11:27:41.919Z,39.20
2018-07-30T11:30:09.171Z,38.90
2018-07-30T11:32:36.375Z,38.90
2018-07-30T11:35:03.652Z,38.40
2018-07-30T11:37:30.865Z,37.60
2018-07-30T11:39:58.078Z,37.50
2018-07-30T11:42:25.296Z,37.60
2018-07-30T11:44:52.575Z,38.10
2018-07-30T11:47:19.766Z,37.90
2018-07-30T11:49:46.966Z,38.30
2018-07-30T11:52:14.175Z,38.30
2018-07-30T11:54:41.377Z,38.40
2018-07-30T11:57:08.592Z,38.30
2018-07-30T11:59:35.802Z,37.80
2018-07-30T12:02:03.038Z,38.20
2018-07-30T12:04:30.235Z,38.30
2018-07-30T12:06:57.550Z,38.40
2018-07-30T12:09:24.739Z,38.80
2018-07-30T12:11:51.942Z,38.70
2018-07-30T12:14:19.118Z,38.60
2018-07-30T12:16:46.320Z,39.10
2018-07-30T12:19:13.515Z,38.40
2018-07-30T12:21:40.792Z,38.30
2018-07-30T12:26:35.248Z,38.40
2018-07-30T12:29:02.479Z,38.50
2018-07-30T12:31:29.674Z,38.60
2018-07-30T12:33:56.871Z,38.60
2018-07-30T12:36:24.086Z,39.10
2018-07-30T12:41:18.502Z,39.40
2018-07-30T12:43:45.683Z,39.50
2018-07-30T12:46:12.875Z,39.40
2018-07-30T12:48:40.064Z,39.40
2018-07-30T12:51:07.414Z,39.60
2018-07-30T12:53:34.606Z,39.70
2018-07-30T12:56:01.935Z,39.60
2018-07-30T12:58:29.215Z,40.10
2018-07-30T13:00:56.433Z,40.50
2018-07-30T13:03:23.644Z,40.60
2018-07-30T13:05:50.834Z,40.70
2018-07-30T13:08:18.059Z,40.60
2018-07-30T13:10:45.253Z,40.50
2018-07-30T13:13:12.535Z,40.30
2018-07-30T13:15:39.734Z,40.40
2018-07-30T13:18:07.351Z,39.80
2018-07-30T13:20:34.561Z,39.40
2018-07-30T13:23:01.748Z,38.80
2018-07-30T13:25:28.975Z,38.90
2018-07-30T13:27:56.175Z,38.80
2018-07-30T13:30:23.376Z,39.10
2018-07-30T13:32:50.810Z,39.20
2018-07-30T13:35:18.015Z,39.40
2018-07-30T13:40:12.531Z,40.10
2018-07-30T13:42:39.799Z,39.40
2018-07-30T13:45:07.071Z,38.70
2018-07-30T13:47:34.427Z,38.50
2018-07-30T13:50:01.685Z,38.20
2018-07-30T13:52:28.895Z,38.20
2018-07-30T13:54:56.110Z,38.30
2018-07-30T13:57:23.332Z,38.80
2018-07-30T13:59:50.543Z,39.10
2018-07-30T14:02:17.726Z,39.10
2018-07-30T14:07:12.184Z,39.80
2018-07-30T14:09:39.403Z,39.80
2018-07-30T14:12:06.616Z,39.40
2018-07-30T14:14:33.827Z,39.40
2018-07-30T14:17:01.028Z,38.70
2018-07-30T14:19:28.235Z,37.90
2018-07-30T14:21:55.443Z,37.60
2018-07-30T14:24:22.675Z,37.40
2018-07-30T14:26:49.867Z,37.90
2018-07-30T14:29:17.051Z,38.10
2018-07-30T14:31:44.251Z,38.00
2018-07-30T14:34:11.460Z,38.50
2018-07-30T14:36:38.677Z,38.80
2018-07-30T14:39:07.506Z,39.20
2018-07-30T14:44:01.941Z,38.90
2018-07-30T14:46:29.172Z,38.60
2018-07-30T14:48:56.395Z,37.80
2018-07-30T14:51:23.627Z,38.00
2018-07-30T14:53:50.827Z,38.00
2018-07-30T14:56:18.068Z,38.40
2018-07-30T14:58:45.264Z,38.10
2018-07-30T15:01:12.482Z,38.00
2018-07-30T15:06:06.907Z,37.60
2018-07-30T15:11:01.315Z,38.00
2018-07-30T15:13:28.784Z,37.90
2018-07-30T15:15:55.990Z,38.00
2018-07-30T15:18:23.198Z,38.00
2018-07-30T15:20:50.391Z,37.60
2018-07-30T15:23:17.602Z,37.70
2018-07-30T15:25:44.826Z,37.80
2018-07-30T15:28:12.026Z,38.00
2018-07-30T15:30:39.260Z,37.90
2018-07-30T15:33:06.463Z,37.70
2018-07-30T15:35:33.650Z,37.60
2018-07-30T15:38:00.855Z,37.50
2018-07-30T15:40:28.077Z,37.20
2018-07-30T15:42:55.267Z,37.10
2018-07-30T15:47:49.659Z,36.90
2018-07-30T15:50:16.847Z,36.90
2018-07-30T15:52:44.039Z,37.30
2018-07-30T15:55:11.266Z,37.30
2018-07-30T15:57:38.474Z,37.20
2018-07-30T16:00:06.625Z,37.00
2018-07-30T16:02:33.825Z,37.00
2018-07-30T16:07:28.200Z,36.80
2018-07-30T16:09:55.391Z,36.70
2018-07-30T16:12:22.607Z,36.60
2018-07-30T16:14:49.805Z,36.30
2018-07-30T16:17:16.982Z,36.20
2018-07-30T16:19:44.158Z,36.10
2018-07-30T16:22:11.343Z,35.90
2018-07-30T16:24:38.547Z,35.70
2018-07-30T16:27:05.968Z,35.80
2018-07-30T16:29:33.183Z,35.90
2018-07-30T16:32:00.416Z,36.30
2018-07-30T16:34:28.012Z,36.30
2018-07-30T16:36:55.203Z,36.60
2018-07-30T16:39:22.418Z,36.70
2018-07-30T16:41:49.610Z,36.40
2018-07-30T16:44:16.842Z,36.30
2018-07-30T16:46:44.088Z,36.30
2018-07-30T16:49:11.283Z,36.10
2018-07-30T16:51:38.478Z,36.00
2018-07-30T16:54:05.707Z,35.90
2018-07-30T16:56:32.915Z,35.90
2018-07-30T16:59:00.139Z,35.90
2018-07-30T17:03:54.575Z,35.80
2018-07-30T17:06:21.772Z,35.60
2018-07-30T17:08:48.995Z,34.90
2018-07-30T17:11:16.223Z,34.10
2018-07-30T17:13:43.451Z,33.70
2018-07-30T17:16:10.747Z,33.50
2018-07-30T17:18:38.260Z,33.60
2018-07-30T17:21:05.718Z,33.80
2018-07-30T17:23:32.924Z,33.90
2018-07-30T17:26:00.124Z,33.80
2018-07-30T17:28:27.318Z,33.80
2018-07-30T17:30:54.511Z,33.80
2018-07-30T17:33:21.718Z,33.70
2018-07-30T17:35:48.910Z,33.50
2018-07-30T17:38:16.107Z,33.10
2018-07-30T17:40:43.295Z,32.60
2018-07-30T17:43:10.522Z,32.40
2018-07-30T17:45:37.960Z,32.10
2018-07-30T17:48:05.399Z,31.80
2018-07-30T17:50:32.823Z,31.60
2018-07-30T17:53:00.112Z,31.30
2018-07-30T17:55:27.299Z,31.00
2018-07-30T17:57:54.602Z,30.80
2018-07-30T18:00:21.854Z,30.60
2018-07-30T18:02:49.085Z,30.40
2018-07-30T18:05:18.392Z,30.20
2018-07-30T18:07:46.478Z,30.00
2018-07-30T18:10:13.703Z,29.80
2018-07-30T18:12:41.315Z,29.60
2018-07-30T18:15:08.632Z,29.30
2018-07-30T18:17:35.975Z,29.10
2018-07-30T18:20:03.311Z,28.90
2018-07-30T18:22:30.531Z,28.80
2018-07-30T18:27:25.136Z,28.40
2018-07-30T18:29:52.348Z,28.20
2018-07-30T18:32:19.544Z,28.10
2018-07-30T18:34:46.842Z,28.00
2018-07-30T18:37:14.056Z,27.80
2018-07-30T18:39:41.313Z,27.70
2018-07-30T18:42:08.538Z,27.70
2018-07-30T18:44:35.774Z,27.60
2018-07-30T18:47:03.121Z,27.50
2018-07-30T18:49:30.336Z,27.30
2018-07-30T18:51:57.598Z,27.20
2018-07-30T18:54:24.918Z,27.10
2018-07-30T18:56:52.217Z,27.00
2018-07-30T18:59:19.387Z,26.90
2018-07-30T19:04:14.022Z,26.80
2018-07-30T19:06:41.264Z,26.80
2018-07-30T19:09:09.043Z,26.70
2018-07-30T19:11:36.384Z,26.70
2018-07-30T19:14:03.600Z,26.60
2018-07-30T19:16:30.836Z,26.60
2018-07-30T19:18:58.151Z,26.50
2018-07-30T19:21:25.456Z,26.40
2018-07-30T19:23:52.692Z,26.40
2018-07-30T19:26:19.933Z,26.30
2018-07-30T19:28:47.133Z,26.20
2018-07-30T19:31:14.442Z,26.20
2018-07-30T19:36:08.869Z,26.00
2018-07-30T19:41:03.487Z,25.90
2018-07-30T19:43:30.903Z,25.80
2018-07-30T19:45:58.088Z,25.80
2018-07-30T19:48:25.332Z,25.70
2018-07-30T19:50:52.570Z,25.60
2018-07-30T19:55:47.148Z,25.50
2018-07-30T19:58:14.692Z,25.50
2018-07-30T20:00:41.836Z,25.40
2018-07-30T20:03:10.168Z,25.30
2018-07-30T20:05:37.371Z,25.30
2018-07-30T20:08:04.657Z,25.30
2018-07-30T20:10:31.892Z,25.30
2018-07-30T20:12:59.239Z,25.20
2018-07-30T20:15:26.515Z,25.20
2018-07-30T20:17:53.917Z,25.10
2018-07-30T20:20:21.279Z,25.00
2018-07-30T20:22:48.601Z,25.00
2018-07-30T20:25:15.938Z,24.90
2018-07-30T20:27:43.531Z,24.80
2018-07-30T20:30:10.892Z,24.80
2018-07-30T20:32:38.113Z,24.80
2018-07-30T20:35:05.459Z,24.80
2018-07-30T20:37:32.768Z,24.70
2018-07-30T20:40:00.057Z,24.70
2018-07-30T20:42:27.284Z,24.60
2018-07-30T20:44:54.570Z,24.60
2018-07-30T20:47:21.854Z,24.50
2018-07-30T20:49:49.107Z,24.50
2018-07-30T20:52:16.445Z,24.50
2018-07-30T20:54:43.751Z,24.50
2018-07-30T20:57:11.134Z,24.50
2018-07-30T20:59:38.440Z,24.40
2018-07-30T21:02:06.444Z,24.40
2018-07-30T21:04:33.722Z,24.40
2018-07-30T21:07:00.860Z,24.40
2018-07-30T21:09:28.047Z,24.40
2018-07-30T21:11:55.240Z,24.40
2018-07-30T21:14:22.532Z,24.50
2018-07-30T21:19:16.943Z,24.60
2018-07-30T21:21:44.147Z,24.60
2018-07-30T21:24:11.359Z,24.60
2018-07-30T21:26:38.576Z,24.70
2018-07-30T21:29:05.755Z,24.80
2018-07-30T21:31:32.968Z,25.00
2018-07-30T21:36:27.370Z,25.00
2018-07-30T21:38:54.592Z,25.10
2018-07-30T21:41:21.799Z,25.10
2018-07-30T21:43:48.998Z,25.10
2018-07-30T21:46:16.174Z,25.00
2018-07-30T21:48:43.368Z,25.10
2018-07-30T21:51:10.572Z,25.10
2018-07-30T21:53:37.775Z,25.00
2018-07-30T21:56:05.379Z,25.00
2018-07-30T21:58:32.577Z,24.90
2018-07-30T22:03:27.198Z,24.80
2018-07-30T22:05:56.839Z,24.80
2018-07-30T22:08:24.175Z,24.80
2018-07-30T22:10:51.387Z,25.00
2018-07-30T22:13:18.620Z,25.00
2018-07-30T22:18:13.304Z,25.00
2018-07-30T22:20:40.519Z,25.00
2018-07-30T22:23:07.789Z,25.00
2018-07-30T22:25:34.995Z,25.00
2018-07-30T22:28:02.195Z,24.90
2018-07-30T22:30:29.403Z,24.90
2018-07-30T22:32:56.607Z,25.00
2018-07-30T22:35:23.825Z,25.00
2018-07-30T22:37:51.027Z,25.00
2018-07-30T22:40:18.227Z,24.90
2018-07-30T22:42:45.418Z,24.90
2018-07-30T22:45:12.635Z,24.80
2018-07-30T22:47:39.929Z,24.70
2018-07-30T22:50:07.136Z,24.60
2018-07-30T22:52:34.333Z,24.60
2018-07-30T22:55:01.695Z,24.60
2018-07-30T22:57:28.879Z,24.60
2018-07-30T23:02:23.304Z,24.60
2018-07-30T23:04:50.491Z,24.60
2018-07-30T23:07:17.690Z,24.70
2018-07-30T23:09:44.895Z,24.60
2018-07-30T23:12:12.079Z,24.60
2018-07-30T23:14:39.280Z,24.60
2018-07-30T23:17:07.143Z,24.50
2018-07-30T23:19:34.379Z,24.50
2018-07-30T23:22:01.571Z,24.50
2018-07-30T23:24:28.743Z,24.40
2018-07-30T23:26:55.951Z,24.40
2018-07-30T23:29:23.159Z,24.40
2018-07-30T23:31:50.377Z,24.40
2018-07-30T23:34:17.559Z,24.40
2018-07-30T23:36:44.803Z,24.40
2018-07-30T23:39:11.959Z,24.40
2018-07-30T23:41:39.319Z,24.40
2018-07-30T23:44:06.698Z,24.30
2018-07-30T23:46:33.912Z,24.30
2018-07-30T23:49:01.143Z,24.30
2018-07-30T23:51:28.575Z,24.40
2018-07-30T23:53:55.844Z,24.30
2018-07-30T23:56:23.014Z,24.30
2018-07-30T23:58:50.211Z,24.20
